Time;durP1;ratioP1;P1;durP2;ratioP2;P2;SDS_P1;SDS_P2;PMS_P1;PMS_P2;Temp;Humidity;BMP_temperature;BMP_pressure;BME280_temperature;BME280_humidity;BME280_pressure;Samples;Min_cycle;Max_cycle;Signal;HPM_P1;HPM_P2
2024/03/02 00:08:27;;;;;;;;;;;4.40;99.90;;;;;;21087215;28;19919;-80
2024/03/02 00:18:32;;;;;;;;;;;4.00;99.90;;;;;;21091565;28;19916;-80
2024/03/02 00:28:36;;;;;;;;;;;3.60;99.90;;;;;;21103698;28;19917;-79
2024/03/02 00:38:55;;;;;;;;;;;3.20;99.90;;;;;;21077820;28;19963;-79
2024/03/02 00:48:56;;;;;;;;;;;3.20;99.90;;;;;;21053883;28;19919;-79
2024/03/02 00:58:57;;;;;;;;;;;3.30;99.90;;;;;;21046980;28;19916;-79
2024/03/02 01:08:58;;;;;;;;;;;3.20;99.90;;;;;;21078681;28;19951;-79
2024/03/02 01:18:59;;;;;;;;;;;3.30;99.90;;;;;;21048406;28;19964;-78
2024/03/02 01:28:59;;;;;;;;;;;3.10;99.90;;;;;;21060883;28;19917;-79
2024/03/02 01:39:00;;;;;;;;;;;3.40;99.90;;;;;;21074312;28;19916;-78
2024/03/02 01:49:01;;;;;;;;;;;3.90;99.90;;;;;;21066110;28;19912;-82
2024/03/02 01:59:03;;;;;;;;;;;3.50;99.90;;;;;;21092109;28;19947;-79
2024/03/02 02:09:03;;;;;;;;;;;3.50;99.90;;;;;;21091225;28;19946;-81
2024/03/02 02:19:05;;;;;;;;;;;3.40;99.90;;;;;;21103190;28;20375;-81
2024/03/02 02:29:05;;;;;;;;;;;3.30;99.90;;;;;;21094123;28;19912;-80
2024/03/02 02:39:07;;;;;;;;;;;3.20;99.90;;;;;;21099064;28;19924;-80
2024/03/02 02:49:08;;;;;;;;;;;3.20;99.90;;;;;;21098770;28;19916;-78
2024/03/02 02:59:09;;;;;;;;;;;3.10;99.90;;;;;;21100622;28;20111;-79
2024/03/02 03:09:11;;;;;;;;;;;2.90;99.90;;;;;;21078217;28;19920;-81
2024/03/02 03:19:11;;;;;;;;;;;2.90;99.90;;;;;;21070432;28;19916;-78
2024/03/02 03:29:12;;;;;;;;;;;3.10;99.90;;;;;;21069534;28;19937;-79
2024/03/02 03:39:12;;;;;;;;;;;3.20;99.90;;;;;;21066960;28;20329;-81
2024/03/02 03:49:13;;;;;;;;;;;3.40;99.90;;;;;;21086424;28;20133;-81
2024/03/02 03:59:14;;;;;;;;;;;3.60;99.90;;;;;;21081288;28;19916;-79
2024/03/02 04:09:14;;;;;;;;;;;3.70;99.90;;;;;;21083694;28;19951;-78
2024/03/02 04:19:15;;;;;;;;;;;3.70;99.90;;;;;;21083640;28;20010;-80
2024/03/02 04:29:16;;;;;;;;;;;3.80;99.90;;;;;;21076678;28;19916;-79
2024/03/02 04:39:16;;;;;;;;;;;3.80;99.90;;;;;;21077282;28;19920;-79
2024/03/02 04:49:17;;;;;;;;;;;3.80;99.90;;;;;;21094945;28;19912;-81
2024/03/02 04:59:17;;;;;;;;;;;3.90;99.90;;;;;;21077567;28;19923;-81
2024/03/02 05:09:18;;;;;;;;;;;3.90;99.90;;;;;;21078332;28;19999;-80
2024/03/02 05:19:19;;;;;;;;;;;4.00;99.90;;;;;;21045105;28;19942;-80
2024/03/02 05:29:20;;;;;;;;;;;4.00;99.90;;;;;;21066080;28;19912;-80
2024/03/02 05:39:21;;;;;;;;;;;4.00;99.90;;;;;;21071749;28;19916;-79
2024/03/02 05:49:22;;;;;;;;;;;4.00;99.90;;;;;;21075075;28;19919;-79
2024/03/02 05:59:22;;;;;;;;;;;4.00;99.90;;;;;;21079029;28;20022;-79
2024/03/02 06:09:24;;;;;;;;;;;4.00;99.90;;;;;;21039083;28;19917;-79
2024/03/02 06:19:25;;;;;;;;;;;4.10;99.90;;;;;;21060045;28;20329;-79
2024/03/02 06:29:25;;;;;;;;;;;4.10;99.90;;;;;;21037647;28;19938;-79
2024/03/02 06:39:26;;;;;;;;;;;4.10;99.90;;;;;;21072233;28;19916;-79
2024/03/02 06:49:27;;;;;;;;;;;4.20;99.90;;;;;;21047025;28;20007;-80
2024/03/02 06:59:27;;;;;;;;;;;4.20;99.90;;;;;;21005388;28;19924;-80
2024/03/02 07:09:28;;;;;;;;;;;4.30;99.90;;;;;;21068442;28;20398;-82
2024/03/02 07:19:29;;;;;;;;;;;4.40;99.90;;;;;;21091397;28;19916;-79
2024/03/02 07:29:29;;;;;;;;;;;4.60;99.90;;;;;;21067378;28;20343;-81
2024/03/02 07:39:30;;;;;;;;;;;4.70;99.90;;;;;;21095991;28;19920;-81
2024/03/02 07:49:31;;;;;;;;;;;4.70;99.90;;;;;;21072317;28;19964;-80
2024/03/02 07:59:31;;;;;;;;;;;4.90;99.90;;;;;;21101896;28;19916;-80
2024/03/02 08:09:32;;;;;;;;;;;5.10;99.90;;;;;;21089843;28;20003;-82
2024/03/02 08:19:33;;;;;;;;;;;5.30;99.90;;;;;;21115958;28;19920;-81
2024/03/02 08:29:33;;;;;;;;;;;5.70;99.90;;;;;;21112338;28;19912;-81
2024/03/02 08:39:34;;;;;;;;;;;6.60;99.90;;;;;;21075185;28;20445;-79
2024/03/02 08:49:35;;;;;;;;;;;8.00;99.90;;;;;;21087432;28;19913;-80
2024/03/02 08:59:36;;;;;;;;;;;8.60;99.90;;;;;;21016912;28;19917;-81
2024/03/02 09:09:38;;;;;;;;;;;9.00;99.90;;;;;;21049246;28;20399;-79
2024/03/02 09:19:39;;;;;;;;;;;10.00;99.90;;;;;;21044369;28;20383;-80
2024/03/02 09:29:39;;;;;;;;;;;11.00;99.90;;;;;;21051488;28;20002;-79
2024/03/02 09:39:43;;;;;;;;;;;10.80;99.90;;;;;;21045718;28;20291;-80
2024/03/02 09:49:43;;;;;;;;;;;12.20;99.90;;;;;;21046930;28;20428;-78
2024/03/02 09:59:45;;;;;;;;;;;13.40;99.90;;;;;;21090840;28;19916;-79
2024/03/02 10:09:47;;;;;;;;;;;13.90;99.90;;;;;;21041112;28;19965;-78
2024/03/02 10:19:47;;;;;;;;;;;13.30;99.90;;;;;;21017333;28;19962;-78
2024/03/02 10:29:50;;;;;;;;;;;13.90;99.90;;;;;;21030056;28;20488;-78
2024/03/02 10:39:52;;;;;;;;;;;14.10;99.90;;;;;;21030691;28;20009;-78
2024/03/02 10:49:54;;;;;;;;;;;14.60;99.90;;;;;;21059351;28;19943;-79
2024/03/02 11:00:01;;;;;;;;;;;14.80;99.90;;;;;;21067807;28;20395;-79
2024/03/02 11:10:08;;;;;;;;;;;14.10;99.90;;;;;;21045917;28;20418;-79
2024/03/02 11:20:09;;;;;;;;;;;15.50;99.90;;;;;;21080550;28;19916;-77
2024/03/02 11:30:29;;;;;;;;;;;14.40;99.90;;;;;;21074683;28;20030;-79
2024/03/02 11:40:30;;;;;;;;;;;14.10;99.90;;;;;;21100758;28;19920;-79
2024/03/02 11:50:38;;;;;;;;;;;16.50;99.90;;;;;;21095411;28;19913;-80
2024/03/02 12:00:39;;;;;;;;;;;15.90;99.90;;;;;;21074280;28;19939;-79
2024/03/02 12:10:39;;;;;;;;;;;15.70;99.90;;;;;;21093524;28;20087;-79
2024/03/02 12:20:40;;;;;;;;;;;16.90;99.90;;;;;;21094992;28;20280;-79
2024/03/02 12:30:41;;;;;;;;;;;17.00;99.90;;;;;;21090559;28;19912;-79
2024/03/02 12:40:41;;;;;;;;;;;16.10;99.90;;;;;;21076532;28;19927;-79
2024/03/02 12:50:44;;;;;;;;;;;17.10;99.90;;;;;;21065445;28;19935;-79
2024/03/02 13:00:44;;;;;;;;;;;17.30;99.90;;;;;;21061154;28;19959;-78
2024/03/02 13:10:45;;;;;;;;;;;17.50;99.90;;;;;;21051554;28;19924;-79
2024/03/02 13:20:46;;;;;;;;;;;17.70;99.90;;;;;;21055619;28;19916;-79
2024/03/02 13:30:47;;;;;;;;;;;16.30;99.90;;;;;;21060770;28;19913;-79
2024/03/02 13:40:50;;;;;;;;;;;14.90;99.90;;;;;;21049582;28;19916;-80
2024/03/02 13:50:52;;;;;;;;;;;14.90;99.90;;;;;;21077918;28;19912;-80
2024/03/02 14:00:53;;;;;;;;;;;14.70;99.90;;;;;;21077085;28;19923;-80
2024/03/02 14:10:55;;;;;;;;;;;14.60;99.90;;;;;;21064175;28;20353;-80
2024/03/02 14:20:56;;;;;;;;;;;14.10;99.90;;;;;;21084648;28;19939;-81
2024/03/02 14:30:57;;;;;;;;;;;13.90;99.90;;;;;;21086832;28;19919;-79
2024/03/02 14:40:58;;;;;;;;;;;14.10;99.90;;;;;;21068856;28;19917;-81
2024/03/02 14:50:59;;;;;;;;;;;14.00;99.90;;;;;;21056714;28;19966;-79
2024/03/02 15:00:59;;;;;;;;;;;13.30;99.90;;;;;;21060801;28;19916;-80
2024/03/02 15:11:01;;;;;;;;;;;12.90;99.90;;;;;;21073193;28;20448;-81
2024/03/02 15:21:02;;;;;;;;;;;13.30;99.90;;;;;;21082691;28;19912;-81
2024/03/02 15:31:03;;;;;;;;;;;13.40;99.90;;;;;;21059153;28;19920;-79
2024/03/02 15:41:04;;;;;;;;;;;13.70;99.90;;;;;;21062762;28;20311;-81
2024/03/02 15:51:05;;;;;;;;;;;14.40;99.90;;;;;;21084168;28;19912;-82
2024/03/02 16:01:06;;;;;;;;;;;14.80;99.90;;;;;;21089591;28;19967;-83
2024/03/02 16:11:06;;;;;;;;;;;14.30;99.90;;;;;;21091394;28;19924;-80
2024/03/02 16:21:08;;;;;;;;;;;13.00;99.90;;;;;;21060983;28;19916;-80
2024/03/02 16:31:10;;;;;;;;;;;12.40;99.90;;;;;;21048157;28;19954;-80
2024/03/02 16:41:10;;;;;;;;;;;12.20;99.90;;;;;;21038323;28;19912;-79
2024/03/02 16:51:11;;;;;;;;;;;11.90;99.90;;;;;;21031087;28;19916;-80
2024/03/02 17:01:11;;;;;;;;;;;11.50;99.90;;;;;;21037229;28;19916;-80
2024/03/02 17:11:12;;;;;;;;;;;10.80;99.90;;;;;;21022312;28;20006;-78
2024/03/02 17:21:13;;;;;;;;;;;10.30;99.90;;;;;;21044250;28;19947;-79
2024/03/02 17:31:13;;;;;;;;;;;10.30;99.90;;;;;;21023116;28;20334;-81
2024/03/02 17:41:14;;;;;;;;;;;10.60;99.90;;;;;;21040949;28;19966;-80
2024/03/02 17:51:16;;;;;;;;;;;9.80;99.90;;;;;;21035565;28;20005;-80
2024/03/02 18:01:17;;;;;;;;;;;9.30;99.90;;;;;;21013715;28;19922;-79
2024/03/02 18:11:18;;;;;;;;;;;9.10;99.90;;;;;;21067495;28;19916;-80
2024/03/02 18:21:18;;;;;;;;;;;8.90;99.90;;;;;;21026245;28;19920;-80
2024/03/02 18:31:21;;;;;;;;;;;9.00;99.90;;;;;;21033283;28;19912;-80
2024/03/02 18:41:22;;;;;;;;;;;8.90;99.90;;;;;;21054954;28;19912;-80
2024/03/02 18:51:23;;;;;;;;;;;8.90;99.90;;;;;;21064137;28;19916;-79
2024/03/02 19:01:23;;;;;;;;;;;8.80;99.90;;;;;;21025570;28;19939;-80
2024/03/02 19:11:24;;;;;;;;;;;8.90;99.90;;;;;;21030445;28;20391;-81
2024/03/02 19:21:25;;;;;;;;;;;8.80;99.90;;;;;;21046140;28;19938;-79
2024/03/02 19:31:25;;;;;;;;;;;8.90;99.90;;;;;;21043101;28;19912;-79
2024/03/02 19:41:26;;;;;;;;;;;8.80;99.90;;;;;;21048820;28;19952;-81
2024/03/02 19:51:28;;;;;;;;;;;8.80;99.90;;;;;;21090743;28;19923;-80
2024/03/02 20:01:29;;;;;;;;;;;8.70;99.90;;;;;;21111674;28;19912;-81
2024/03/02 20:11:33;;;;;;;;;;;8.80;99.90;;;;;;21094431;28;19923;-82
2024/03/02 20:21:33;;;;;;;;;;;8.80;99.90;;;;;;21073705;28;19916;-81
2024/03/02 20:31:36;;;;;;;;;;;9.10;99.90;;;;;;21068912;28;19922;-80
2024/03/02 20:41:37;;;;;;;;;;;9.30;99.90;;;;;;21078941;28;19912;-85
2024/03/02 20:51:38;;;;;;;;;;;9.30;99.90;;;;;;21082905;28;19922;-81
2024/03/02 21:01:38;;;;;;;;;;;9.20;99.90;;;;;;21058017;28;19912;-81
2024/03/02 21:11:40;;;;;;;;;;;8.80;99.90;;;;;;21086484;28;20010;-77
2024/03/02 21:21:41;;;;;;;;;;;8.30;99.90;;;;;;21064072;28;19916;-83
2024/03/02 21:31:42;;;;;;;;;;;8.20;99.90;;;;;;21061833;28;19942;-80
2024/03/02 21:41:42;;;;;;;;;;;8.10;99.90;;;;;;21060707;28;20422;-79
2024/03/02 21:51:44;;;;;;;;;;;8.20;99.90;;;;;;21071414;28;19916;-80
2024/03/02 22:01:45;;;;;;;;;;;8.10;99.90;;;;;;21071964;28;20378;-81
2024/03/02 22:11:45;;;;;;;;;;;7.90;99.90;;;;;;21017821;28;19916;-79
2024/03/02 22:21:46;;;;;;;;;;;7.90;99.90;;;;;;21052250;28;19991;-79
2024/03/02 22:31:47;;;;;;;;;;;7.60;99.90;;;;;;21015354;28;19923;-80
2024/03/02 22:41:50;;;;;;;;;;;7.70;99.90;;;;;;21048063;28;20268;-80
2024/03/02 22:51:51;;;;;;;;;;;7.60;99.90;;;;;;21044255;28;19927;-80
2024/03/02 23:01:51;;;;;;;;;;;7.60;99.90;;;;;;21070931;28;19916;-80
2024/03/02 23:11:52;;;;;;;;;;;7.60;99.90;;;;;;21042500;28;19958;-80
2024/03/02 23:21:53;;;;;;;;;;;7.40;99.90;;;;;;21043414;28;20295;-80
2024/03/02 23:31:53;;;;;;;;;;;7.30;99.90;;;;;;21045945;28;19917;-84
2024/03/02 23:41:54;;;;;;;;;;;7.30;99.90;;;;;;21067425;28;19923;-80
2024/03/02 23:51:55;;;;;;;;;;;7.10;99.90;;;;;;21081245;28;19920;-81
